createdAt,value
2018-06-20T18:47:04.845Z,98603.89
2018-06-20T18:49:33.052Z,98615.89
2018-06-20T18:52:01.213Z,98613.89
2018-06-20T18:54:29.375Z,98613.75
2018-06-20T18:56:57.732Z,98619.61
2018-06-20T18:59:31.070Z,98618.23
2018-06-20T19:02:04.553Z,98613.56
2018-06-20T19:04:38.188Z,98613.27
2018-06-20T19:07:11.774Z,98626.11
2018-06-20T19:09:40.132Z,98629.09
2018-06-20T19:12:08.444Z,98631.12
2018-06-20T19:14:36.587Z,98629.50
2018-06-20T19:17:05.340Z,98630.03
2018-06-20T19:19:33.456Z,98636.00
2018-06-20T19:22:01.500Z,98635.16
2018-06-20T19:24:29.433Z,98637.05
2018-06-20T19:26:57.638Z,98640.50
2018-06-20T19:29:25.637Z,98634.08
2018-06-20T19:31:53.743Z,98639.16
2018-06-20T19:34:22.038Z,98636.07
2018-06-20T19:36:52.208Z,98634.69
2018-06-20T19:39:54.153Z,98631.42
2018-06-20T19:42:24.765Z,98636.28
2018-06-20T19:44:52.944Z,98628.23
2018-06-20T19:47:21.509Z,98630.58
2018-06-20T19:49:49.583Z,98630.02
2018-06-20T19:52:18.302Z,98629.09
2018-06-20T19:54:46.418Z,98635.34
2018-06-20T19:57:15.558Z,98630.31
2018-06-20T19:59:43.613Z,98629.91
2018-06-20T20:02:11.690Z,98627.21
2018-06-20T20:04:39.861Z,98624.62
2018-06-20T20:07:08.117Z,98625.80
2018-06-20T20:09:36.927Z,98629.06
2018-06-20T20:12:04.924Z,98634.75
2018-06-20T20:14:32.939Z,98621.45
2018-06-20T20:17:01.550Z,98625.52
2018-06-20T20:19:29.612Z,98621.97
2018-06-20T20:21:57.668Z,98620.77
2018-06-20T20:24:26.079Z,98626.40
2018-06-20T20:26:54.143Z,98630.95
2018-06-20T20:29:22.197Z,98630.06
2018-06-20T20:31:50.189Z,98624.83
2018-06-20T20:34:18.263Z,98615.40
2018-06-20T20:36:46.250Z,98622.34
2018-06-20T20:39:14.387Z,98619.06
2018-06-20T20:41:42.460Z,98622.88
2018-06-20T20:44:10.461Z,98619.61
2018-06-20T20:46:38.609Z,98615.36
2018-06-20T20:49:07.177Z,98620.02
2018-06-20T20:51:35.174Z,98613.77
2018-06-20T20:54:04.137Z,98613.23
2018-06-20T20:56:32.136Z,98609.21
2018-06-20T20:59:00.212Z,98610.29
2018-06-20T21:01:28.391Z,98613.42
2018-06-20T21:03:56.828Z,98605.22
2018-06-20T21:06:24.809Z,98604.05
2018-06-20T21:08:52.814Z,98604.47
2018-06-20T21:11:20.844Z,98602.26
2018-06-20T21:13:48.899Z,98601.41
2018-06-20T21:16:16.908Z,98596.98
2018-06-20T21:18:44.842Z,98601.09
2018-06-20T21:21:13.446Z,98596.63
2018-06-20T21:23:41.506Z,98596.19
2018-06-20T21:26:10.387Z,98593.81
2018-06-20T21:28:38.742Z,98602.35
2018-06-20T21:31:07.411Z,98596.55
2018-06-20T21:33:35.462Z,98597.23
2018-06-20T21:36:03.498Z,98597.02
2018-06-20T21:38:34.309Z,98592.70
2018-06-20T21:41:02.230Z,98601.09
2018-06-20T21:43:30.895Z,98598.31
2018-06-20T21:45:58.903Z,98600.03
2018-06-20T21:48:27.819Z,98599.60
2018-06-20T21:50:56.331Z,98598.75
2018-06-20T21:53:25.481Z,98601.59
2018-06-20T21:55:53.689Z,98603.77
2018-06-20T21:58:21.832Z,98609.38
2018-06-20T22:00:50.636Z,98603.22
2018-06-20T22:03:18.804Z,98607.94
2018-06-20T22:05:47.327Z,98610.96
2018-06-20T22:08:15.420Z,98606.05
2018-06-20T22:10:43.458Z,98609.14
2018-06-20T22:13:11.520Z,98597.66
2018-06-20T22:15:39.601Z,98603.48
2018-06-20T22:18:08.769Z,98602.59
2018-06-20T22:20:37.436Z,98602.50
2018-06-20T22:23:05.974Z,98600.72
2018-06-20T22:25:34.116Z,98594.61
2018-06-20T22:28:02.706Z,98599.53
2018-06-20T22:30:30.670Z,98601.17
2018-06-20T22:32:58.752Z,98602.00
2018-06-20T22:35:27.452Z,98602.80
2018-06-20T22:37:55.502Z,98603.06
2018-06-20T22:40:23.516Z,98603.86
2018-06-20T22:42:51.519Z,98599.42
2018-06-20T22:45:19.549Z,98597.64
2018-06-20T22:47:47.688Z,98597.36
2018-06-20T22:50:15.824Z,98597.59
2018-06-20T22:52:43.804Z,98593.23
2018-06-20T22:55:11.799Z,98598.61
2018-06-20T22:57:39.808Z,98584.73
2018-06-20T23:00:07.873Z,98588.42
2018-06-20T23:02:36.609Z,98582.11
2018-06-20T23:05:04.713Z,98582.73
2018-06-20T23:07:32.668Z,98581.75
2018-06-20T23:10:00.671Z,98582.44
2018-06-20T23:12:28.682Z,98579.58
2018-06-20T23:14:56.805Z,98569.80
2018-06-20T23:17:24.829Z,98579.64
2018-06-20T23:19:53.268Z,98568.08
2018-06-20T23:22:21.238Z,98564.77
2018-06-20T23:24:49.306Z,98561.71
2018-06-20T23:27:17.315Z,98560.73
2018-06-20T23:29:45.240Z,98555.49
2018-06-20T23:32:13.211Z,98554.71
2018-06-20T23:34:41.800Z,98558.77
2018-06-20T23:37:10.139Z,98557.38
2018-06-20T23:39:38.123Z,98558.23
2018-06-20T23:42:06.167Z,98551.55
2018-06-20T23:44:34.039Z,98553.52
2018-06-20T23:47:02.003Z,98554.60
2018-06-20T23:49:30.010Z,98549.23
2018-06-20T23:51:58.274Z,98552.47
2018-06-20T23:54:26.221Z,98539.22
2018-06-20T23:56:54.237Z,98536.71
2018-06-20T23:59:22.843Z,98536.16
